createdAt,value
2022-08-11T00:01:23.577Z,16.16
2022-08-11T00:04:12.404Z,16.27
2022-08-11T00:07:03.748Z,16.05
2022-08-11T00:09:52.808Z,15.89
2022-08-11T00:12:41.216Z,15.58
2022-08-11T00:15:45.749Z,15.49
2022-08-11T00:18:42.667Z,15.47
2022-08-11T00:22:02.882Z,15.52
2022-08-11T00:24:53.447Z,15.61
2022-08-11T00:27:41.872Z,15.58
2022-08-11T00:30:39.422Z,15.45
2022-08-11T00:33:44.184Z,15.40
2022-08-11T00:36:51.659Z,15.09
2022-08-11T00:39:48.742Z,14.85
2022-08-11T00:42:54.481Z,14.71
2022-08-11T00:46:02.428Z,14.85
2022-08-11T00:48:58.037Z,14.87
2022-08-11T00:52:04.359Z,14.85
2022-08-11T00:55:26.554Z,14.82
2022-08-11T00:58:34.812Z,14.90
2022-08-11T01:01:34.733Z,14.91
2022-08-11T01:04:57.178Z,15.08
2022-08-11T01:08:01.359Z,14.96
2022-08-11T01:11:15.149Z,14.89
2022-08-11T01:14:34.531Z,14.98
2022-08-11T01:18:08.512Z,15.09
2022-08-11T01:21:16.922Z,15.55
2022-08-11T01:24:31.850Z,15.75
2022-08-11T01:27:55.420Z,15.36
2022-08-11T01:30:48.654Z,15.22
2022-08-11T01:34:13.234Z,15.31
2022-08-11T01:37:13.653Z,15.73
2022-08-11T01:40:23.601Z,15.38
2022-08-11T01:43:38.298Z,15.43
2022-08-11T01:46:36.782Z,15.22
2022-08-11T01:50:08.684Z,15.41
2022-08-11T01:53:25.356Z,15.26
2022-08-11T01:56:39.779Z,14.86
2022-08-11T01:59:34.952Z,14.66
2022-08-11T02:02:47.566Z,14.83
2022-08-11T02:05:52.623Z,15.10
2022-08-11T02:08:50.627Z,15.04
2022-08-11T02:11:38.687Z,15.23
2022-08-11T02:14:32.769Z,15.19
2022-08-11T02:17:42.877Z,15.20
2022-08-11T02:21:02.403Z,15.41
2022-08-11T02:24:06.887Z,15.51
2022-08-11T02:27:05.150Z,15.39
2022-08-11T02:30:05.272Z,15.38
2022-08-11T02:33:23.093Z,15.25
2022-08-11T02:36:21.902Z,15.01
2022-08-11T02:39:13.089Z,15.00
2022-08-11T02:42:32.817Z,15.12
2022-08-11T02:45:29.596Z,14.73
2022-08-11T02:48:41.301Z,14.89
2022-08-11T02:51:53.896Z,14.91
2022-08-11T02:54:55.418Z,14.80
2022-08-11T02:57:59.583Z,14.81
2022-08-11T03:01:11.648Z,14.74
2022-08-11T03:04:11.284Z,14.65
2022-08-11T03:07:38.773Z,14.83
2022-08-11T03:10:32.958Z,14.89
2022-08-11T03:13:47.043Z,14.89
2022-08-11T03:16:46.631Z,14.92
2022-08-11T03:19:42.355Z,14.63
2022-08-11T03:22:29.305Z,14.86
2022-08-11T03:25:55.087Z,14.85
2022-08-11T03:28:48.297Z,14.78
2022-08-11T03:32:11.411Z,14.80
2022-08-11T03:35:01.697Z,14.92
2022-08-11T03:38:00.204Z,14.81
2022-08-11T03:42:03.850Z,14.82
2022-08-11T03:45:23.994Z,14.85
2022-08-11T03:48:39.914Z,14.81
2022-08-11T03:51:52.131Z,14.76
2022-08-11T03:54:59.573Z,14.77
2022-08-11T03:58:08.228Z,14.72
2022-08-11T04:01:34.997Z,14.82
2022-08-11T04:05:18.243Z,14.70
2022-08-11T04:08:42.576Z,14.46
2022-08-11T04:11:50.890Z,14.37
2022-08-11T04:15:19.375Z,14.15
2022-08-11T04:18:43.687Z,14.12
2022-08-11T04:22:18.883Z,14.19
2022-08-11T04:25:28.941Z,14.50
2022-08-11T04:28:49.915Z,14.44
2022-08-11T04:31:52.490Z,14.33
2022-08-11T04:35:23.438Z,14.60
2022-08-11T04:38:47.731Z,14.45
2022-08-11T04:42:31.967Z,14.59
2022-08-11T04:45:33.896Z,14.63
2022-08-11T04:49:11.839Z,14.53
2022-08-11T04:52:42.595Z,14.59
2022-08-11T04:56:05.361Z,15.00
2022-08-11T04:59:39.013Z,15.21
2022-08-11T05:03:01.070Z,15.06
2022-08-11T05:06:06.441Z,15.43
2022-08-11T05:09:28.629Z,15.57
2022-08-11T05:12:36.704Z,15.89
2022-08-11T05:15:55.721Z,16.20
2022-08-11T05:19:16.145Z,16.38
2022-08-11T05:22:27.317Z,16.53
2022-08-11T05:26:42.954Z,16.95
2022-08-11T05:29:21.022Z,17.03
2022-08-11T05:32:31.710Z,17.42
2022-08-11T05:36:00.941Z,18.40
2022-08-11T05:38:55.668Z,18.33
2022-08-11T05:42:01.457Z,19.02
2022-08-11T05:45:15.614Z,19.54
2022-08-11T05:48:23.446Z,19.83
2022-08-11T05:51:30.349Z,19.34
2022-08-11T05:54:36.845Z,19.28
2022-08-11T05:57:42.377Z,18.78
2022-08-11T06:00:43.970Z,19.08
2022-08-11T06:03:58.242Z,18.89
2022-08-11T06:06:52.509Z,19.29
2022-08-11T06:09:50.778Z,18.86
2022-08-11T06:12:40.877Z,18.41
2022-08-11T06:15:31.026Z,18.44
2022-08-11T06:18:19.069Z,19.43
2022-08-11T06:21:11.546Z,20.20
2022-08-11T06:23:59.496Z,20.05
2022-08-11T06:27:11.641Z,20.43
2022-08-11T06:30:00.831Z,21.13
2022-08-11T06:32:55.520Z,20.41
2022-08-11T06:36:02.770Z,21.36
2022-08-11T06:39:28.157Z,22.32
2022-08-11T06:42:24.649Z,22.06
2022-08-11T06:45:55.836Z,21.07
2022-08-11T06:48:44.914Z,21.14
2022-08-11T06:51:35.199Z,21.89
2022-08-11T06:54:23.925Z,20.75
2022-08-11T06:57:34.092Z,21.40
2022-08-11T07:00:33.084Z,22.16
2022-08-11T07:03:21.799Z,22.35
2022-08-11T07:06:50.136Z,22.71
2022-08-11T07:10:27.845Z,23.08
2022-08-11T07:13:44.711Z,23.21
2022-08-11T07:16:36.228Z,23.70
2022-08-11T07:19:45.745Z,22.12
2022-08-11T07:22:52.053Z,21.37
2022-08-11T07:26:03.192Z,22.51
2022-08-11T07:28:59.058Z,21.99
2022-08-11T07:31:53.999Z,22.63
2022-08-11T07:34:48.191Z,22.95
2022-08-11T07:37:36.292Z,22.84
2022-08-11T07:40:24.392Z,22.19
2022-08-11T07:43:13.130Z,22.09
2022-08-11T07:46:23.330Z,23.88
2022-08-11T07:49:29.945Z,25.53
2022-08-11T07:52:28.575Z,25.33
2022-08-11T07:55:17.445Z,24.94
2022-08-11T07:58:24.927Z,24.93
2022-08-11T08:01:39.535Z,24.03
2022-08-11T08:04:47.361Z,25.69
2022-08-11T08:07:55.987Z,25.31
2022-08-11T08:11:02.334Z,24.43
2022-08-11T08:14:08.585Z,24.00
2022-08-11T08:17:15.990Z,23.58
2022-08-11T08:20:04.180Z,24.16
2022-08-11T08:22:57.238Z,24.77
2022-08-11T08:25:46.106Z,25.05
2022-08-11T08:28:34.148Z,26.03
2022-08-11T08:31:21.722Z,25.97
2022-08-11T08:34:10.621Z,25.22
2022-08-11T08:36:58.475Z,26.38
2022-08-11T08:39:47.323Z,26.25
2022-08-11T08:42:44.827Z,26.20
2022-08-11T08:45:37.802Z,25.95
2022-08-11T08:48:26.512Z,26.38
2022-08-11T08:51:58.798Z,24.96
2022-08-11T08:54:43.327Z,27.10
2022-08-11T08:57:39.961Z,26.01
2022-08-11T09:00:39.733Z,25.48
2022-08-11T09:04:06.912Z,27.27
2022-08-11T09:06:40.009Z,26.06
2022-08-11T09:09:27.897Z,27.29
2022-08-11T09:12:17.054Z,26.23
2022-08-11T09:15:24.652Z,26.01
2022-08-11T09:18:12.490Z,25.43
2022-08-11T09:21:02.434Z,26.38
2022-08-11T09:24:14.962Z,26.52
2022-08-11T09:27:10.837Z,25.33
2022-08-11T09:29:58.581Z,26.73
2022-08-11T09:32:46.214Z,26.83
2022-08-11T09:35:38.790Z,26.30
2022-08-11T09:38:49.475Z,27.32
2022-08-11T09:41:55.597Z,25.52
2022-08-11T09:44:52.864Z,26.23
2022-08-11T09:47:41.179Z,26.73
2022-08-11T09:50:28.528Z,26.14
2022-08-11T09:53:36.808Z,26.25
2022-08-11T09:56:48.192Z,26.46
2022-08-11T09:59:35.161Z,27.01
2022-08-11T10:02:30.329Z,27.68
2022-08-11T10:05:39.680Z,26.67
2022-08-11T10:08:30.096Z,26.37
2022-08-11T10:11:21.875Z,28.20
2022-08-11T10:14:34.834Z,28.55
2022-08-11T10:17:23.327Z,27.47
2022-08-11T10:20:12.137Z,27.07
2022-08-11T10:23:18.657Z,26.58
2022-08-11T10:26:25.840Z,26.76
2022-08-11T10:29:36.738Z,30.02
2022-08-11T10:32:57.779Z,27.51
2022-08-11T10:35:47.122Z,27.26
2022-08-11T10:38:35.225Z,29.08
2022-08-11T10:42:01.832Z,27.90
2022-08-11T10:44:51.988Z,27.77
2022-08-11T10:47:46.730Z,28.05
2022-08-11T10:50:56.096Z,29.56
2022-08-11T10:54:12.451Z,28.22
2022-08-11T10:57:19.749Z,27.37
2022-08-11T11:00:10.232Z,26.74
2022-08-11T11:03:22.317Z,26.83
2022-08-11T11:06:29.228Z,27.31
2022-08-11T11:09:22.328Z,27.98
2022-08-11T11:12:34.186Z,28.72
2022-08-11T11:15:43.152Z,29.48
2022-08-11T11:18:36.050Z,30.08
2022-08-11T11:21:25.511Z,29.89
2022-08-11T11:24:40.096Z,28.31
2022-08-11T11:27:46.644Z,29.46
2022-08-11T11:31:24.610Z,29.53
2022-08-11T11:34:23.334Z,29.85
2022-08-11T11:37:13.398Z,28.00
2022-08-11T11:40:01.132Z,29.28
2022-08-11T11:42:50.913Z,27.78
2022-08-11T11:45:40.806Z,29.44
2022-08-11T11:48:28.924Z,29.71
2022-08-11T11:51:16.365Z,28.78
2022-08-11T11:54:05.990Z,28.15
2022-08-11T11:56:58.353Z,28.79
2022-08-11T12:00:04.132Z,29.65
2022-08-11T12:02:52.381Z,28.89
2022-08-11T12:05:43.648Z,30.00
2022-08-11T12:08:31.369Z,29.13
2022-08-11T12:11:40.318Z,28.64
2022-08-11T12:14:31.084Z,28.41
2022-08-11T12:17:18.645Z,28.30
2022-08-11T12:20:33.423Z,29.45
2022-08-11T12:23:34.039Z,29.48
2022-08-11T12:26:40.028Z,29.37
2022-08-11T12:29:28.524Z,27.98
2022-08-11T12:32:16.105Z,30.83
2022-08-11T12:35:05.654Z,28.52
2022-08-11T12:38:02.594Z,29.45
2022-08-11T12:41:15.163Z,32.35
2022-08-11T12:44:25.223Z,29.22
2022-08-11T12:47:17.025Z,30.07
2022-08-11T12:50:23.837Z,29.82
2022-08-11T12:53:12.776Z,31.07
2022-08-11T12:56:23.224Z,30.88
2022-08-11T12:59:29.240Z,29.38
2022-08-11T13:02:39.054Z,28.76
2022-08-11T13:05:28.825Z,29.55
2022-08-11T13:08:22.114Z,29.12
2022-08-11T13:11:56.955Z,29.54
2022-08-11T13:14:36.722Z,28.50
2022-08-11T13:17:43.504Z,29.73
2022-08-11T13:20:32.129Z,31.81
2022-08-11T13:23:20.455Z,31.69
2022-08-11T13:26:08.949Z,29.98
2022-08-11T13:28:56.051Z,30.34
2022-08-11T13:31:43.463Z,28.97
2022-08-11T13:34:31.491Z,28.69
2022-08-11T13:37:21.269Z,28.45
2022-08-11T13:40:45.752Z,29.66
2022-08-11T13:43:38.197Z,28.58
2022-08-11T13:46:27.624Z,29.47
2022-08-11T13:49:20.933Z,30.53
2022-08-11T13:52:16.093Z,28.76
2022-08-11T13:55:04.013Z,29.34
2022-08-11T13:58:18.405Z,31.16
2022-08-11T14:01:01.908Z,29.28
2022-08-11T14:04:30.844Z,29.39
2022-08-11T14:07:22.893Z,29.54
2022-08-11T14:10:13.467Z,29.81
2022-08-11T14:13:24.991Z,28.72
2022-08-11T14:16:19.080Z,28.45
2022-08-11T14:19:11.970Z,28.15
2022-08-11T14:22:09.143Z,30.03
2022-08-11T14:24:58.254Z,29.02
2022-08-11T14:28:32.156Z,28.86
2022-08-11T14:31:00.501Z,28.74
2022-08-11T14:33:59.689Z,29.89
2022-08-11T14:36:54.864Z,29.75
2022-08-11T14:39:48.470Z,29.57
2022-08-11T14:42:54.096Z,29.32
2022-08-11T14:45:59.880Z,28.70
2022-08-11T14:48:46.991Z,29.03
2022-08-11T14:51:34.895Z,28.94
2022-08-11T14:54:46.566Z,29.83
2022-08-11T14:57:54.977Z,27.53
2022-08-11T15:00:44.870Z,29.85
2022-08-11T15:03:33.839Z,29.14
2022-08-11T15:06:21.067Z,28.60
2022-08-11T15:09:09.356Z,28.78
2022-08-11T15:12:32.352Z,28.96
2022-08-11T15:15:35.951Z,28.90
2022-08-11T15:18:24.279Z,28.57
2022-08-11T15:21:29.815Z,28.55
2022-08-11T15:24:19.512Z,28.38
2022-08-11T15:27:32.356Z,28.40
2022-08-11T15:30:38.093Z,28.25
2022-08-11T15:33:47.665Z,27.91
2022-08-11T15:36:54.608Z,27.74
2022-08-11T15:40:31.102Z,27.03
2022-08-11T15:43:42.420Z,27.05
2022-08-11T15:46:39.236Z,28.02
2022-08-11T15:50:10.952Z,27.28
2022-08-11T15:52:53.858Z,27.72
2022-08-11T15:55:43.570Z,27.52
2022-08-11T15:59:10.727Z,27.64
2022-08-11T16:02:23.702Z,27.01
2022-08-11T16:05:14.155Z,26.94
2022-08-11T16:08:32.773Z,26.74
2022-08-11T16:11:22.149Z,26.72
2022-08-11T16:14:30.236Z,26.83
2022-08-11T16:17:19.829Z,26.84
2022-08-11T16:20:08.944Z,26.85
2022-08-11T16:23:02.142Z,26.66
2022-08-11T16:27:02.835Z,26.63
2022-08-11T16:29:00.224Z,26.84
2022-08-11T16:32:08.395Z,26.70
2022-08-11T16:35:18.427Z,27.23
2022-08-11T16:38:26.259Z,26.83
2022-08-11T16:41:17.134Z,26.48
2022-08-11T16:44:37.427Z,26.58
2022-08-11T16:48:03.396Z,26.28
2022-08-11T16:50:36.045Z,26.36
2022-08-11T16:53:23.192Z,26.11
2022-08-11T16:56:49.202Z,25.99
2022-08-11T16:59:39.581Z,26.17
2022-08-11T17:02:53.503Z,25.92
2022-08-11T17:06:05.461Z,26.02
2022-08-11T17:09:12.677Z,25.93
2022-08-11T17:12:20.788Z,25.77
2022-08-11T17:15:33.114Z,25.93
2022-08-11T17:18:43.370Z,25.67
2022-08-11T17:21:34.677Z,25.86
2022-08-11T17:24:21.746Z,26.13
2022-08-11T17:27:09.779Z,26.13
2022-08-11T17:29:59.384Z,25.78
2022-08-11T17:33:08.231Z,25.57
2022-08-11T17:35:57.527Z,25.75
2022-08-11T17:38:45.734Z,25.40
2022-08-11T17:41:51.288Z,25.48
2022-08-11T17:44:58.734Z,25.28
2022-08-11T17:48:05.630Z,25.31
2022-08-11T17:50:56.516Z,25.24
2022-08-11T17:54:24.088Z,25.12
2022-08-11T17:57:30.446Z,25.01
2022-08-11T18:00:17.921Z,25.07
2022-08-11T18:03:23.899Z,25.03
2022-08-11T18:06:14.795Z,24.52
2022-08-11T18:09:23.329Z,24.65
2022-08-11T18:12:29.639Z,24.42
2022-08-11T18:15:34.864Z,24.09
2022-08-11T18:18:40.583Z,23.86
2022-08-11T18:22:14.334Z,23.74
2022-08-11T18:25:24.915Z,23.62
2022-08-11T18:28:33.868Z,23.48
2022-08-11T18:31:40.299Z,23.44
2022-08-11T18:34:51.584Z,23.21
2022-08-11T18:38:04.294Z,22.91
2022-08-11T18:41:10.542Z,22.97
2022-08-11T18:44:21.076Z,22.55
2022-08-11T18:47:30.055Z,22.64
2022-08-11T18:50:39.806Z,22.42
2022-08-11T18:53:47.622Z,22.35
2022-08-11T18:56:54.546Z,22.17
2022-08-11T19:00:02.431Z,22.07
2022-08-11T19:03:09.004Z,21.84
2022-08-11T19:06:38.778Z,21.65
2022-08-11T19:09:47.192Z,21.46
2022-08-11T19:12:59.537Z,21.32
2022-08-11T19:16:06.353Z,21.35
2022-08-11T19:19:13.263Z,21.32
2022-08-11T19:22:21.971Z,21.10
2022-08-11T19:25:30.013Z,21.03
2022-08-11T19:28:37.552Z,21.03
2022-08-11T19:31:45.486Z,20.92
2022-08-11T19:34:51.836Z,20.79
2022-08-11T19:37:58.631Z,20.74
2022-08-11T19:41:05.362Z,20.67
2022-08-11T19:44:16.454Z,20.65
2022-08-11T19:47:22.364Z,20.54
2022-08-11T19:50:28.148Z,20.32
2022-08-11T19:53:34.441Z,20.33
2022-08-11T19:56:40.562Z,20.24
2022-08-11T19:59:46.785Z,20.11
2022-08-11T20:02:52.649Z,19.97
2022-08-11T20:06:01.102Z,19.83
2022-08-11T20:09:08.842Z,19.91
2022-08-11T20:12:19.981Z,19.68
2022-08-11T20:15:30.375Z,19.33
2022-08-11T20:18:37.738Z,18.99
2022-08-11T20:21:45.438Z,18.92
2022-08-11T20:24:52.789Z,18.67
2022-08-11T20:28:04.241Z,18.46
2022-08-11T20:31:12.298Z,18.66
2022-08-11T20:34:20.117Z,18.14
2022-08-11T20:37:26.387Z,18.04
2022-08-11T20:40:34.405Z,18.47
2022-08-11T20:44:07.657Z,18.62
2022-08-11T20:47:13.208Z,18.69
2022-08-11T20:50:21.017Z,18.69
2022-08-11T20:53:29.213Z,18.70
2022-08-11T20:56:37.803Z,18.72
2022-08-11T20:59:52.804Z,18.74
2022-08-11T21:03:04.771Z,18.91
2022-08-11T21:06:11.442Z,19.13
2022-08-11T21:09:58.247Z,18.95
2022-08-11T21:12:50.799Z,18.95
2022-08-11T21:16:03.315Z,19.02
2022-08-11T21:19:11.082Z,18.83
2022-08-11T21:22:21.210Z,18.53
2022-08-11T21:25:36.164Z,18.43
2022-08-11T21:28:42.042Z,18.57
2022-08-11T21:31:50.071Z,18.40
2022-08-11T21:34:57.533Z,18.43
2022-08-11T21:38:07.099Z,18.30
2022-08-11T21:41:13.620Z,18.48
2022-08-11T21:44:20.389Z,18.56
2022-08-11T21:47:43.537Z,18.13
2022-08-11T21:50:49.993Z,18.04
2022-08-11T21:53:56.808Z,18.06
2022-08-11T21:57:04.489Z,18.46
2022-08-11T22:00:16.718Z,18.33
2022-08-11T22:03:23.666Z,17.38
2022-08-11T22:06:29.108Z,17.44
2022-08-11T22:09:34.623Z,17.46
2022-08-11T22:12:44.755Z,17.57
2022-08-11T22:15:51.307Z,17.48
2022-08-11T22:18:56.991Z,17.72
2022-08-11T22:22:06.168Z,17.81
2022-08-11T22:25:16.004Z,17.69
2022-08-11T22:28:22.533Z,17.72
2022-08-11T22:31:30.137Z,17.68
2022-08-11T22:34:53.416Z,17.63
2022-08-11T22:37:59.791Z,17.78
2022-08-11T22:41:05.647Z,17.57
2022-08-11T22:44:11.497Z,17.29
2022-08-11T22:47:21.505Z,17.22
2022-08-11T22:50:29.173Z,17.25
2022-08-11T22:53:57.770Z,17.26
2022-08-11T22:57:02.398Z,17.15
2022-08-11T23:00:08.488Z,17.05
2022-08-11T23:03:34.261Z,17.12
2022-08-11T23:06:41.205Z,17.20
2022-08-11T23:09:47.065Z,17.08
2022-08-11T23:12:54.152Z,17.09
2022-08-11T23:16:00.002Z,16.82
2022-08-11T23:19:06.404Z,16.72
2022-08-11T23:22:13.401Z,16.68
2022-08-11T23:25:18.840Z,16.72
2022-08-11T23:28:26.392Z,16.76
2022-08-11T23:31:51.108Z,16.65
2022-08-11T23:35:37.841Z,16.61
2022-08-11T23:38:29.012Z,16.29
2022-08-11T23:41:35.045Z,16.13
2022-08-11T23:44:40.722Z,16.17
2022-08-11T23:47:50.755Z,15.72
2022-08-11T23:50:56.919Z,15.73
2022-08-11T23:54:07.870Z,15.87
2022-08-11T23:57:14.116Z,15.81
